sensor_id;sensor_type;location;lat;lon;timestamp;P1;durP1;ratioP1;P2;durP2;ratioP2
13847;SDS011;6994;49.752;6.094;2023-05-16T00:01:51;2.37;;;1.00;;
13847;SDS011;6994;49.752;6.094;2023-05-16T00:04:18;1.37;;;0.82;;
13847;SDS011;6994;49.752;6.094;2023-05-16T00:06:45;1.75;;;0.90;;
13847;SDS011;6994;49.752;6.094;2023-05-16T00:09:12;1.08;;;0.80;;
13847;SDS011;6994;49.752;6.094;2023-05-16T00:11:39;1.25;;;1.08;;
13847;SDS011;6994;49.752;6.094;2023-05-16T00:14:07;2.15;;;0.80;;
13847;SDS011;6994;49.752;6.094;2023-05-16T00:16:35;0.90;;;0.90;;
13847;SDS011;6994;49.752;6.094;2023-05-16T00:19:03;1.02;;;0.80;;
13847;SDS011;6994;49.752;6.094;2023-05-16T00:21:31;0.62;;;0.62;;
13847;SDS011;6994;49.752;6.094;2023-05-16T00:23:59;1.45;;;0.95;;
13847;SDS011;6994;49.752;6.094;2023-05-16T00:26:26;1.12;;;0.98;;
13847;SDS011;6994;49.752;6.094;2023-05-16T00:28:53;1.60;;;0.85;;
13847;SDS011;6994;49.752;6.094;2023-05-16T00:31:20;1.02;;;0.60;;
13847;SDS011;6994;49.752;6.094;2023-05-16T00:33:47;1.15;;;0.88;;
13847;SDS011;6994;49.752;6.094;2023-05-16T00:36:15;1.12;;;1.00;;
13847;SDS011;6994;49.752;6.094;2023-05-16T00:38:42;1.58;;;0.90;;
13847;SDS011;6994;49.752;6.094;2023-05-16T00:41:09;1.10;;;0.98;;
13847;SDS011;6994;49.752;6.094;2023-05-16T00:43:36;1.45;;;0.85;;
13847;SDS011;6994;49.752;6.094;2023-05-16T00:46:03;2.62;;;0.90;;
13847;SDS011;6994;49.752;6.094;2023-05-16T00:48:31;1.90;;;1.25;;
13847;SDS011;6994;49.752;6.094;2023-05-16T00:51:00;1.33;;;0.73;;
13847;SDS011;6994;49.752;6.094;2023-05-16T00:53:27;2.08;;;0.80;;
13847;SDS011;6994;49.752;6.094;2023-05-16T00:55:55;0.88;;;0.80;;
13847;SDS011;6994;49.752;6.094;2023-05-16T00:58:23;1.50;;;0.88;;
13847;SDS011;6994;49.752;6.094;2023-05-16T01:00:51;1.85;;;1.00;;
13847;SDS011;6994;49.752;6.094;2023-05-16T01:03:18;2.85;;;1.15;;
13847;SDS011;6994;49.752;6.094;2023-05-16T01:05:46;2.15;;;0.88;;
13847;SDS011;6994;49.752;6.094;2023-05-16T01:08:13;3.08;;;1.20;;
13847;SDS011;6994;49.752;6.094;2023-05-16T01:13:32;0.88;;;0.88;;
13847;SDS011;6994;49.752;6.094;2023-05-16T01:16:09;2.42;;;1.00;;
13847;SDS011;6994;49.752;6.094;2023-05-16T01:24:19;1.58;;;1.02;;
13847;SDS011;6994;49.752;6.094;2023-05-16T01:26:41;5.43;;;1.27;;
13847;SDS011;6994;49.752;6.094;2023-05-16T01:29:09;0.95;;;0.95;;
13847;SDS011;6994;49.752;6.094;2023-05-16T01:31:37;0.90;;;0.82;;
13847;SDS011;6994;49.752;6.094;2023-05-16T01:34:05;1.67;;;1.48;;
13847;SDS011;6994;49.752;6.094;2023-05-16T01:39:06;2.50;;;1.23;;
13847;SDS011;6994;49.752;6.094;2023-05-16T01:47:24;3.12;;;1.62;;
13847;SDS011;6994;49.752;6.094;2023-05-16T01:52:44;1.62;;;1.52;;
13847;SDS011;6994;49.752;6.094;2023-05-16T01:55:16;2.22;;;1.80;;
13847;SDS011;6994;49.752;6.094;2023-05-16T01:57:41;4.60;;;1.37;;
13847;SDS011;6994;49.752;6.094;2023-05-16T02:00:09;4.03;;;1.40;;
13847;SDS011;6994;49.752;6.094;2023-05-16T02:02:36;2.17;;;1.10;;
13847;SDS011;6994;49.752;6.094;2023-05-16T02:05:03;2.37;;;1.65;;
13847;SDS011;6994;49.752;6.094;2023-05-16T02:07:30;3.00;;;2.25;;
13847;SDS011;6994;49.752;6.094;2023-05-16T02:09:58;5.62;;;2.00;;
13847;SDS011;6994;49.752;6.094;2023-05-16T02:12:26;3.33;;;2.00;;
13847;SDS011;6994;49.752;6.094;2023-05-16T02:14:54;3.42;;;2.10;;
13847;SDS011;6994;49.752;6.094;2023-05-16T02:17:22;6.75;;;2.10;;
13847;SDS011;6994;49.752;6.094;2023-05-16T02:19:49;2.95;;;2.40;;
13847;SDS011;6994;49.752;6.094;2023-05-16T02:22:17;2.05;;;1.85;;
13847;SDS011;6994;49.752;6.094;2023-05-16T02:24:44;3.35;;;1.85;;
13847;SDS011;6994;49.752;6.094;2023-05-16T02:27:11;3.70;;;2.00;;
13847;SDS011;6994;49.752;6.094;2023-05-16T02:29:38;1.67;;;1.42;;
13847;SDS011;6994;49.752;6.094;2023-05-16T02:32:05;3.08;;;2.12;;
13847;SDS011;6994;49.752;6.094;2023-05-16T02:34:33;3.58;;;2.28;;
13847;SDS011;6994;49.752;6.094;2023-05-16T02:37:01;4.20;;;2.72;;
13847;SDS011;6994;49.752;6.094;2023-05-16T02:39:29;1.92;;;1.73;;
13847;SDS011;6994;49.752;6.094;2023-05-16T02:41:57;2.58;;;2.10;;
13847;SDS011;6994;49.752;6.094;2023-05-16T02:44:25;3.17;;;1.85;;
13847;SDS011;6994;49.752;6.094;2023-05-16T02:46:53;4.68;;;1.73;;
13847;SDS011;6994;49.752;6.094;2023-05-16T02:49:20;2.97;;;2.00;;
13847;SDS011;6994;49.752;6.094;2023-05-16T02:51:48;4.20;;;1.87;;
13847;SDS011;6994;49.752;6.094;2023-05-16T02:54:17;2.10;;;1.90;;
13847;SDS011;6994;49.752;6.094;2023-05-16T02:56:44;5.85;;;2.05;;
13847;SDS011;6994;49.752;6.094;2023-05-16T02:59:11;3.55;;;1.73;;
13847;SDS011;6994;49.752;6.094;2023-05-16T03:01:38;1.80;;;1.52;;
13847;SDS011;6994;49.752;6.094;2023-05-16T03:04:05;2.37;;;1.58;;
13847;SDS011;6994;49.752;6.094;2023-05-16T03:06:32;1.75;;;1.60;;
13847;SDS011;6994;49.752;6.094;2023-05-16T03:09:00;3.03;;;1.73;;
13847;SDS011;6994;49.752;6.094;2023-05-16T03:11:30;1.87;;;1.33;;
13847;SDS011;6994;49.752;6.094;2023-05-16T03:13:57;3.17;;;1.90;;
13847;SDS011;6994;49.752;6.094;2023-05-16T03:16:51;4.18;;;1.60;;
13847;SDS011;6994;49.752;6.094;2023-05-16T03:19:19;2.65;;;1.30;;
13847;SDS011;6994;49.752;6.094;2023-05-16T03:21:46;3.87;;;1.70;;
13847;SDS011;6994;49.752;6.094;2023-05-16T03:24:13;2.10;;;1.20;;
13847;SDS011;6994;49.752;6.094;2023-05-16T03:26:41;2.25;;;1.10;;
13847;SDS011;6994;49.752;6.094;2023-05-16T03:29:09;4.32;;;1.30;;
13847;SDS011;6994;49.752;6.094;2023-05-16T03:31:36;2.60;;;1.23;;
13847;SDS011;6994;49.752;6.094;2023-05-16T03:34:04;2.20;;;1.25;;
13847;SDS011;6994;49.752;6.094;2023-05-16T03:36:32;4.05;;;1.02;;
13847;SDS011;6994;49.752;6.094;2023-05-16T03:38:59;6.87;;;1.58;;
13847;SDS011;6994;49.752;6.094;2023-05-16T03:41:26;4.05;;;1.45;;
13847;SDS011;6994;49.752;6.094;2023-05-16T03:43:54;1.77;;;1.55;;
13847;SDS011;6994;49.752;6.094;2023-05-16T03:46:21;3.40;;;1.35;;
13847;SDS011;6994;49.752;6.094;2023-05-16T03:48:48;3.33;;;1.42;;
13847;SDS011;6994;49.752;6.094;2023-05-16T03:51:16;2.83;;;1.35;;
13847;SDS011;6994;49.752;6.094;2023-05-16T03:53:43;4.62;;;1.60;;
13847;SDS011;6994;49.752;6.094;2023-05-16T03:56:10;4.07;;;1.25;;
13847;SDS011;6994;49.752;6.094;2023-05-16T03:58:37;6.57;;;1.30;;
13847;SDS011;6994;49.752;6.094;2023-05-16T04:01:04;4.57;;;1.42;;
13847;SDS011;6994;49.752;6.094;2023-05-16T04:03:32;3.92;;;1.65;;
13847;SDS011;6994;49.752;6.094;2023-05-16T04:05:59;4.45;;;1.50;;
13847;SDS011;6994;49.752;6.094;2023-05-16T04:08:26;8.18;;;1.95;;
13847;SDS011;6994;49.752;6.094;2023-05-16T04:10:53;2.87;;;1.45;;
13847;SDS011;6994;49.752;6.094;2023-05-16T04:13:20;4.28;;;1.83;;
13847;SDS011;6994;49.752;6.094;2023-05-16T04:15:48;2.40;;;1.30;;
13847;SDS011;6994;49.752;6.094;2023-05-16T04:18:15;5.47;;;1.85;;
13847;SDS011;6994;49.752;6.094;2023-05-16T04:20:42;4.62;;;1.42;;
13847;SDS011;6994;49.752;6.094;2023-05-16T04:23:09;3.72;;;1.50;;
13847;SDS011;6994;49.752;6.094;2023-05-16T04:25:36;4.75;;;2.12;;
13847;SDS011;6994;49.752;6.094;2023-05-16T04:28:04;5.62;;;2.20;;
13847;SDS011;6994;49.752;6.094;2023-05-16T04:30:31;3.37;;;1.55;;
13847;SDS011;6994;49.752;6.094;2023-05-16T04:32:58;4.70;;;1.90;;
13847;SDS011;6994;49.752;6.094;2023-05-16T04:35:26;3.62;;;1.70;;
13847;SDS011;6994;49.752;6.094;2023-05-16T04:37:52;3.75;;;1.85;;
13847;SDS011;6994;49.752;6.094;2023-05-16T04:40:20;3.65;;;1.73;;
13847;SDS011;6994;49.752;6.094;2023-05-16T04:42:47;4.78;;;1.70;;
13847;SDS011;6994;49.752;6.094;2023-05-16T04:45:14;4.57;;;1.73;;
13847;SDS011;6994;49.752;6.094;2023-05-16T04:47:41;2.85;;;1.40;;
13847;SDS011;6994;49.752;6.094;2023-05-16T04:50:08;4.20;;;1.95;;
13847;SDS011;6994;49.752;6.094;2023-05-16T04:52:36;5.35;;;1.90;;
13847;SDS011;6994;49.752;6.094;2023-05-16T04:55:03;3.30;;;1.55;;
13847;SDS011;6994;49.752;6.094;2023-05-16T04:58:13;6.30;;;2.08;;
13847;SDS011;6994;49.752;6.094;2023-05-16T05:00:41;4.28;;;1.70;;
13847;SDS011;6994;49.752;6.094;2023-05-16T05:03:08;2.97;;;1.33;;
13847;SDS011;6994;49.752;6.094;2023-05-16T05:05:35;3.62;;;1.80;;
13847;SDS011;6994;49.752;6.094;2023-05-16T05:08:02;4.65;;;1.55;;
13847;SDS011;6994;49.752;6.094;2023-05-16T05:10:29;3.10;;;1.52;;
13847;SDS011;6994;49.752;6.094;2023-05-16T05:12:56;2.80;;;1.30;;
13847;SDS011;6994;49.752;6.094;2023-05-16T05:15:24;6.07;;;1.85;;
13847;SDS011;6994;49.752;6.094;2023-05-16T05:17:51;2.53;;;1.40;;
13847;SDS011;6994;49.752;6.094;2023-05-16T05:20:18;4.47;;;1.40;;
13847;SDS011;6994;49.752;6.094;2023-05-16T05:22:45;3.78;;;1.48;;
13847;SDS011;6994;49.752;6.094;2023-05-16T05:25:13;3.97;;;1.40;;
13847;SDS011;6994;49.752;6.094;2023-05-16T05:27:40;1.55;;;1.25;;
13847;SDS011;6994;49.752;6.094;2023-05-16T05:30:07;4.12;;;1.00;;
13847;SDS011;6994;49.752;6.094;2023-05-16T05:32:34;4.30;;;1.60;;
13847;SDS011;6994;49.752;6.094;2023-05-16T05:35:01;3.15;;;1.10;;
13847;SDS011;6994;49.752;6.094;2023-05-16T05:37:29;2.05;;;1.00;;
13847;SDS011;6994;49.752;6.094;2023-05-16T05:39:57;2.92;;;1.15;;
13847;SDS011;6994;49.752;6.094;2023-05-16T05:42:25;1.80;;;0.90;;
13847;SDS011;6994;49.752;6.094;2023-05-16T05:44:52;3.10;;;1.20;;
13847;SDS011;6994;49.752;6.094;2023-05-16T05:47:19;4.37;;;1.10;;
13847;SDS011;6994;49.752;6.094;2023-05-16T05:49:46;6.32;;;1.80;;
13847;SDS011;6994;49.752;6.094;2023-05-16T05:52:13;3.62;;;0.90;;
13847;SDS011;6994;49.752;6.094;2023-05-16T05:54:41;3.10;;;1.20;;
13847;SDS011;6994;49.752;6.094;2023-05-16T05:57:08;1.60;;;0.80;;
13847;SDS011;6994;49.752;6.094;2023-05-16T05:59:35;5.68;;;1.70;;
13847;SDS011;6994;49.752;6.094;2023-05-16T06:02:02;4.03;;;1.00;;
13847;SDS011;6994;49.752;6.094;2023-05-16T06:04:29;2.70;;;1.08;;
13847;SDS011;6994;49.752;6.094;2023-05-16T06:06:57;3.83;;;1.27;;
13847;SDS011;6994;49.752;6.094;2023-05-16T06:09:24;2.60;;;1.30;;
13847;SDS011;6994;49.752;6.094;2023-05-16T06:11:52;4.37;;;1.25;;
13847;SDS011;6994;49.752;6.094;2023-05-16T06:14:20;4.22;;;1.17;;
13847;SDS011;6994;49.752;6.094;2023-05-16T06:16:47;5.12;;;1.20;;
13847;SDS011;6994;49.752;6.094;2023-05-16T06:19:14;2.70;;;1.45;;
13847;SDS011;6994;49.752;6.094;2023-05-16T06:21:42;4.60;;;1.10;;
13847;SDS011;6994;49.752;6.094;2023-05-16T06:24:10;1.85;;;1.02;;
13847;SDS011;6994;49.752;6.094;2023-05-16T06:26:37;1.92;;;1.00;;
13847;SDS011;6994;49.752;6.094;2023-05-16T06:29:04;9.25;;;1.30;;
13847;SDS011;6994;49.752;6.094;2023-05-16T06:31:32;4.40;;;1.12;;
13847;SDS011;6994;49.752;6.094;2023-05-16T06:33:59;4.18;;;1.33;;
13847;SDS011;6994;49.752;6.094;2023-05-16T06:36:26;4.97;;;1.42;;
13847;SDS011;6994;49.752;6.094;2023-05-16T06:38:53;6.15;;;1.23;;
13847;SDS011;6994;49.752;6.094;2023-05-16T06:41:20;6.87;;;1.33;;
13847;SDS011;6994;49.752;6.094;2023-05-16T06:43:48;3.62;;;1.17;;
13847;SDS011;6994;49.752;6.094;2023-05-16T06:46:15;1.58;;;0.70;;
13847;SDS011;6994;49.752;6.094;2023-05-16T06:48:42;3.75;;;1.30;;
13847;SDS011;6994;49.752;6.094;2023-05-16T06:51:09;2.97;;;1.25;;
13847;SDS011;6994;49.752;6.094;2023-05-16T06:53:37;3.92;;;1.23;;
13847;SDS011;6994;49.752;6.094;2023-05-16T06:56:04;6.85;;;1.00;;
13847;SDS011;6994;49.752;6.094;2023-05-16T06:58:32;2.50;;;0.98;;
13847;SDS011;6994;49.752;6.094;2023-05-16T07:00:59;7.43;;;1.30;;
13847;SDS011;6994;49.752;6.094;2023-05-16T07:03:27;3.55;;;0.70;;
13847;SDS011;6994;49.752;6.094;2023-05-16T07:05:53;5.97;;;1.33;;
13847;SDS011;6994;49.752;6.094;2023-05-16T07:08:20;2.87;;;1.20;;
13847;SDS011;6994;49.752;6.094;2023-05-16T07:10:48;3.20;;;1.10;;
13847;SDS011;6994;49.752;6.094;2023-05-16T07:13:15;3.92;;;1.25;;
13847;SDS011;6994;49.752;6.094;2023-05-16T07:15:42;2.95;;;1.20;;
13847;SDS011;6994;49.752;6.094;2023-05-16T07:18:09;1.12;;;0.90;;
13847;SDS011;6994;49.752;6.094;2023-05-16T07:20:37;7.75;;;1.48;;
13847;SDS011;6994;49.752;6.094;2023-05-16T07:23:04;6.57;;;1.45;;
13847;SDS011;6994;49.752;6.094;2023-05-16T07:25:32;2.80;;;1.00;;
13847;SDS011;6994;49.752;6.094;2023-05-16T07:28:01;5.97;;;1.87;;
13847;SDS011;6994;49.752;6.094;2023-05-16T07:30:28;0.90;;;0.70;;
13847;SDS011;6994;49.752;6.094;2023-05-16T07:32:56;3.15;;;0.70;;
13847;SDS011;6994;49.752;6.094;2023-05-16T07:35:24;3.30;;;1.00;;
13847;SDS011;6994;49.752;6.094;2023-05-16T07:37:52;4.15;;;0.80;;
13847;SDS011;6994;49.752;6.094;2023-05-16T07:40:21;4.62;;;1.00;;
13847;SDS011;6994;49.752;6.094;2023-05-16T07:42:48;2.67;;;0.95;;
13847;SDS011;6994;49.752;6.094;2023-05-16T07:45:15;2.90;;;0.93;;
13847;SDS011;6994;49.752;6.094;2023-05-16T07:47:43;4.55;;;1.00;;
13847;SDS011;6994;49.752;6.094;2023-05-16T07:50:10;3.87;;;1.27;;
13847;SDS011;6994;49.752;6.094;2023-05-16T07:52:37;4.90;;;0.90;;
13847;SDS011;6994;49.752;6.094;2023-05-16T07:55:05;2.45;;;0.80;;
13847;SDS011;6994;49.752;6.094;2023-05-16T07:57:33;1.87;;;0.85;;
13847;SDS011;6994;49.752;6.094;2023-05-16T08:00:01;1.95;;;0.95;;
13847;SDS011;6994;49.752;6.094;2023-05-16T08:02:28;3.62;;;1.20;;
13847;SDS011;6994;49.752;6.094;2023-05-16T08:04:56;1.35;;;0.57;;
13847;SDS011;6994;49.752;6.094;2023-05-16T08:07:23;3.33;;;1.20;;
13847;SDS011;6994;49.752;6.094;2023-05-16T08:09:50;2.92;;;0.68;;
13847;SDS011;6994;49.752;6.094;2023-05-16T08:12:17;7.18;;;1.40;;
13847;SDS011;6994;49.752;6.094;2023-05-16T08:14:44;6.80;;;1.30;;
13847;SDS011;6994;49.752;6.094;2023-05-16T08:17:12;1.70;;;0.90;;
13847;SDS011;6994;49.752;6.094;2023-05-16T08:19:39;1.65;;;0.80;;
13847;SDS011;6994;49.752;6.094;2023-05-16T08:22:06;2.95;;;0.90;;
13847;SDS011;6994;49.752;6.094;2023-05-16T08:24:33;5.85;;;1.12;;
13847;SDS011;6994;49.752;6.094;2023-05-16T08:27:00;4.62;;;0.75;;
13847;SDS011;6994;49.752;6.094;2023-05-16T08:29:28;3.25;;;0.90;;
13847;SDS011;6994;49.752;6.094;2023-05-16T08:31:56;4.50;;;1.00;;
13847;SDS011;6994;49.752;6.094;2023-05-16T08:34:24;2.40;;;0.98;;
13847;SDS011;6994;49.752;6.094;2023-05-16T08:36:52;2.25;;;0.90;;
13847;SDS011;6994;49.752;6.094;2023-05-16T08:39:20;1.70;;;0.80;;
13847;SDS011;6994;49.752;6.094;2023-05-16T08:41:47;4.70;;;1.10;;
13847;SDS011;6994;49.752;6.094;2023-05-16T08:44:15;2.95;;;0.80;;
13847;SDS011;6994;49.752;6.094;2023-05-16T08:46:42;3.47;;;0.80;;
13847;SDS011;6994;49.752;6.094;2023-05-16T08:49:09;2.58;;;0.95;;
13847;SDS011;6994;49.752;6.094;2023-05-16T08:51:36;2.83;;;1.15;;
13847;SDS011;6994;49.752;6.094;2023-05-16T08:54:05;5.00;;;1.17;;
13847;SDS011;6994;49.752;6.094;2023-05-16T08:56:33;3.30;;;0.98;;
13847;SDS011;6994;49.752;6.094;2023-05-16T08:59:01;3.20;;;1.00;;
13847;SDS011;6994;49.752;6.094;2023-05-16T09:01:30;2.10;;;0.80;;
13847;SDS011;6994;49.752;6.094;2023-05-16T09:03:57;4.85;;;0.77;;
13847;SDS011;6994;49.752;6.094;2023-05-16T09:06:24;4.22;;;1.30;;
13847;SDS011;6994;49.752;6.094;2023-05-16T09:08:52;1.73;;;0.70;;
13847;SDS011;6994;49.752;6.094;2023-05-16T09:11:21;1.20;;;0.68;;
13847;SDS011;6994;49.752;6.094;2023-05-16T09:13:48;3.90;;;1.00;;
13847;SDS011;6994;49.752;6.094;2023-05-16T09:16:16;3.83;;;1.15;;
13847;SDS011;6994;49.752;6.094;2023-05-16T09:18:44;4.15;;;0.98;;
13847;SDS011;6994;49.752;6.094;2023-05-16T09:21:10;4.10;;;0.80;;
13847;SDS011;6994;49.752;6.094;2023-05-16T09:23:37;3.20;;;0.88;;
13847;SDS011;6994;49.752;6.094;2023-05-16T09:26:04;2.67;;;0.80;;
13847;SDS011;6994;49.752;6.094;2023-05-16T09:28:31;6.40;;;1.00;;
13847;SDS011;6994;49.752;6.094;2023-05-16T09:30:59;2.70;;;0.82;;
13847;SDS011;6994;49.752;6.094;2023-05-16T09:33:26;2.83;;;0.88;;
13847;SDS011;6994;49.752;6.094;2023-05-16T09:35:57;7.35;;;1.23;;
13847;SDS011;6994;49.752;6.094;2023-05-16T09:38:20;5.50;;;1.17;;
13847;SDS011;6994;49.752;6.094;2023-05-16T09:40:47;3.03;;;0.73;;
13847;SDS011;6994;49.752;6.094;2023-05-16T09:43:16;2.37;;;0.80;;
13847;SDS011;6994;49.752;6.094;2023-05-16T09:45:46;2.03;;;1.15;;
13847;SDS011;6994;49.752;6.094;2023-05-16T09:48:13;1.58;;;0.82;;
13847;SDS011;6994;49.752;6.094;2023-05-16T09:50:45;5.18;;;0.85;;
13847;SDS011;6994;49.752;6.094;2023-05-16T09:53:09;3.28;;;1.10;;
13847;SDS011;6994;49.752;6.094;2023-05-16T09:55:36;2.05;;;0.90;;
13847;SDS011;6994;49.752;6.094;2023-05-16T09:58:03;2.67;;;0.98;;
13847;SDS011;6994;49.752;6.094;2023-05-16T10:00:31;1.80;;;0.80;;
13847;SDS011;6994;49.752;6.094;2023-05-16T10:02:58;5.43;;;1.23;;
13847;SDS011;6994;49.752;6.094;2023-05-16T10:05:27;3.55;;;1.08;;
13847;SDS011;6994;49.752;6.094;2023-05-16T10:07:56;2.42;;;0.82;;
13847;SDS011;6994;49.752;6.094;2023-05-16T10:10:23;3.75;;;0.80;;
13847;SDS011;6994;49.752;6.094;2023-05-16T10:12:50;1.92;;;0.77;;
13847;SDS011;6994;49.752;6.094;2023-05-16T10:15:17;2.40;;;0.90;;
13847;SDS011;6994;49.752;6.094;2023-05-16T10:17:44;1.12;;;0.65;;
13847;SDS011;6994;49.752;6.094;2023-05-16T10:20:11;2.20;;;1.00;;
13847;SDS011;6994;49.752;6.094;2023-05-16T10:22:40;2.22;;;0.88;;
13847;SDS011;6994;49.752;6.094;2023-05-16T10:25:22;1.67;;;0.55;;
13847;SDS011;6994;49.752;6.094;2023-05-16T10:27:40;0.43;;;0.43;;
13847;SDS011;6994;49.752;6.094;2023-05-16T10:30:08;1.25;;;0.65;;
13847;SDS011;6994;49.752;6.094;2023-05-16T10:32:36;2.37;;;0.77;;
13847;SDS011;6994;49.752;6.094;2023-05-16T10:35:03;1.58;;;0.70;;
13847;SDS011;6994;49.752;6.094;2023-05-16T10:37:31;3.17;;;0.60;;
13847;SDS011;6994;49.752;6.094;2023-05-16T10:39:59;2.05;;;1.00;;
13847;SDS011;6994;49.752;6.094;2023-05-16T10:42:27;2.40;;;0.90;;
13847;SDS011;6994;49.752;6.094;2023-05-16T10:44:54;2.22;;;0.73;;
13847;SDS011;6994;49.752;6.094;2023-05-16T10:47:23;3.50;;;0.68;;
13847;SDS011;6994;49.752;6.094;2023-05-16T10:49:51;3.20;;;0.88;;
13847;SDS011;6994;49.752;6.094;2023-05-16T10:52:18;1.58;;;0.32;;
13847;SDS011;6994;49.752;6.094;2023-05-16T10:54:51;2.92;;;0.65;;
13847;SDS011;6994;49.752;6.094;2023-05-16T10:57:19;4.40;;;0.60;;
13847;SDS011;6994;49.752;6.094;2023-05-16T10:59:46;1.35;;;0.73;;
13847;SDS011;6994;49.752;6.094;2023-05-16T11:02:26;1.40;;;0.80;;
13847;SDS011;6994;49.752;6.094;2023-05-16T11:04:55;2.65;;;0.60;;
13847;SDS011;6994;49.752;6.094;2023-05-16T11:07:22;4.22;;;0.70;;
13847;SDS011;6994;49.752;6.094;2023-05-16T11:10:00;3.15;;;0.80;;
13847;SDS011;6994;49.752;6.094;2023-05-16T11:12:19;1.17;;;0.60;;
13847;SDS011;6994;49.752;6.094;2023-05-16T11:14:48;0.93;;;0.62;;
13847;SDS011;6994;49.752;6.094;2023-05-16T11:17:14;1.92;;;0.68;;
13847;SDS011;6994;49.752;6.094;2023-05-16T11:22:08;1.10;;;0.70;;
13847;SDS011;6994;49.752;6.094;2023-05-16T11:24:36;2.15;;;0.55;;
13847;SDS011;6994;49.752;6.094;2023-05-16T11:27:03;2.08;;;0.70;;
13847;SDS011;6994;49.752;6.094;2023-05-16T11:29:34;1.05;;;0.47;;
13847;SDS011;6994;49.752;6.094;2023-05-16T11:31:58;1.10;;;0.47;;
13847;SDS011;6994;49.752;6.094;2023-05-16T11:34:26;3.50;;;0.73;;
13847;SDS011;6994;49.752;6.094;2023-05-16T11:36:53;0.95;;;0.73;;
13847;SDS011;6994;49.752;6.094;2023-05-16T11:39:20;4.25;;;1.20;;
13847;SDS011;6994;49.752;6.094;2023-05-16T11:41:47;2.75;;;0.80;;
13847;SDS011;6994;49.752;6.094;2023-05-16T11:44:14;2.53;;;0.80;;
13847;SDS011;6994;49.752;6.094;2023-05-16T11:46:42;2.83;;;0.90;;
13847;SDS011;6994;49.752;6.094;2023-05-16T11:49:09;3.22;;;0.95;;
13847;SDS011;6994;49.752;6.094;2023-05-16T11:51:39;2.25;;;0.65;;
13847;SDS011;6994;49.752;6.094;2023-05-16T11:54:07;2.22;;;0.85;;
13847;SDS011;6994;49.752;6.094;2023-05-16T11:56:34;2.55;;;0.77;;
13847;SDS011;6994;49.752;6.094;2023-05-16T11:59:02;1.98;;;0.73;;
13847;SDS011;6994;49.752;6.094;2023-05-16T12:01:36;0.70;;;0.68;;
13847;SDS011;6994;49.752;6.094;2023-05-16T12:04:08;3.12;;;0.60;;
13847;SDS011;6994;49.752;6.094;2023-05-16T12:06:36;3.85;;;0.88;;
13847;SDS011;6994;49.752;6.094;2023-05-16T12:09:10;2.45;;;0.50;;
13847;SDS011;6994;49.752;6.094;2023-05-16T12:11:32;2.22;;;0.80;;
13847;SDS011;6994;49.752;6.094;2023-05-16T12:13:59;2.53;;;0.70;;
13847;SDS011;6994;49.752;6.094;2023-05-16T12:16:26;2.25;;;0.60;;
13847;SDS011;6994;49.752;6.094;2023-05-16T12:18:53;1.05;;;0.77;;
13847;SDS011;6994;49.752;6.094;2023-05-16T12:21:20;1.75;;;0.80;;
13847;SDS011;6994;49.752;6.094;2023-05-16T12:23:48;1.70;;;0.80;;
13847;SDS011;6994;49.752;6.094;2023-05-16T12:26:17;2.22;;;0.55;;
13847;SDS011;6994;49.752;6.094;2023-05-16T12:28:42;1.37;;;0.73;;
13847;SDS011;6994;49.752;6.094;2023-05-16T12:31:18;1.27;;;0.60;;
13847;SDS011;6994;49.752;6.094;2023-05-16T12:33:45;2.40;;;0.68;;
13847;SDS011;6994;49.752;6.094;2023-05-16T12:36:13;3.22;;;0.90;;
13847;SDS011;6994;49.752;6.094;2023-05-16T12:38:41;2.00;;;0.95;;
13847;SDS011;6994;49.752;6.094;2023-05-16T12:41:07;2.03;;;0.70;;
13847;SDS011;6994;49.752;6.094;2023-05-16T12:43:34;2.12;;;0.82;;
13847;SDS011;6994;49.752;6.094;2023-05-16T12:46:02;2.17;;;0.70;;
13847;SDS011;6994;49.752;6.094;2023-05-16T12:48:32;3.28;;;0.70;;
13847;SDS011;6994;49.752;6.094;2023-05-16T12:51:09;3.30;;;0.80;;
13847;SDS011;6994;49.752;6.094;2023-05-16T12:53:44;2.75;;;0.68;;
13847;SDS011;6994;49.752;6.094;2023-05-16T12:56:10;1.45;;;0.40;;
13847;SDS011;6994;49.752;6.094;2023-05-16T12:58:38;1.17;;;0.60;;
13847;SDS011;6994;49.752;6.094;2023-05-16T13:01:05;2.12;;;0.60;;
13847;SDS011;6994;49.752;6.094;2023-05-16T13:03:32;1.92;;;0.57;;
13847;SDS011;6994;49.752;6.094;2023-05-16T13:05:59;2.33;;;0.70;;
13847;SDS011;6994;49.752;6.094;2023-05-16T13:08:27;1.92;;;0.57;;
13847;SDS011;6994;49.752;6.094;2023-05-16T13:10:55;0.57;;;0.47;;
13847;SDS011;6994;49.752;6.094;2023-05-16T13:13:23;2.95;;;0.93;;
13847;SDS011;6994;49.752;6.094;2023-05-16T13:15:51;3.47;;;0.85;;
13847;SDS011;6994;49.752;6.094;2023-05-16T13:18:18;3.03;;;1.00;;
13847;SDS011;6994;49.752;6.094;2023-05-16T13:20:45;1.75;;;0.70;;
13847;SDS011;6994;49.752;6.094;2023-05-16T13:23:12;3.85;;;0.65;;
13847;SDS011;6994;49.752;6.094;2023-05-16T13:25:40;0.65;;;0.45;;
13847;SDS011;6994;49.752;6.094;2023-05-16T13:28:07;1.45;;;0.40;;
13847;SDS011;6994;49.752;6.094;2023-05-16T13:30:34;4.75;;;0.80;;
13847;SDS011;6994;49.752;6.094;2023-05-16T13:33:01;1.27;;;0.70;;
13847;SDS011;6994;49.752;6.094;2023-05-16T13:35:29;2.87;;;0.68;;
13847;SDS011;6994;49.752;6.094;2023-05-16T13:37:56;2.25;;;0.50;;
13847;SDS011;6994;49.752;6.094;2023-05-16T13:40:23;1.42;;;0.65;;
13847;SDS011;6994;49.752;6.094;2023-05-16T13:42:51;3.60;;;0.60;;
13847;SDS011;6994;49.752;6.094;2023-05-16T13:45:19;2.33;;;1.00;;
13847;SDS011;6994;49.752;6.094;2023-05-16T13:47:47;1.92;;;0.60;;
13847;SDS011;6994;49.752;6.094;2023-05-16T13:50:15;2.40;;;0.93;;
13847;SDS011;6994;49.752;6.094;2023-05-16T13:52:42;3.10;;;0.90;;
13847;SDS011;6994;49.752;6.094;2023-05-16T13:55:09;0.88;;;0.52;;
13847;SDS011;6994;49.752;6.094;2023-05-16T13:57:37;1.62;;;0.70;;
13847;SDS011;6994;49.752;6.094;2023-05-16T14:00:04;0.73;;;0.47;;
13847;SDS011;6994;49.752;6.094;2023-05-16T14:02:31;2.12;;;0.52;;
13847;SDS011;6994;49.752;6.094;2023-05-16T14:04:58;0.80;;;0.40;;
13847;SDS011;6994;49.752;6.094;2023-05-16T14:07:26;0.75;;;0.55;;
13847;SDS011;6994;49.752;6.094;2023-05-16T14:09:53;2.10;;;0.68;;
13847;SDS011;6994;49.752;6.094;2023-05-16T14:12:20;2.95;;;0.62;;
13847;SDS011;6994;49.752;6.094;2023-05-16T14:14:47;2.87;;;0.80;;
13847;SDS011;6994;49.752;6.094;2023-05-16T14:17:14;1.00;;;0.60;;
13847;SDS011;6994;49.752;6.094;2023-05-16T14:19:42;1.75;;;0.68;;
13847;SDS011;6994;49.752;6.094;2023-05-16T14:22:09;2.67;;;0.90;;
13847;SDS011;6994;49.752;6.094;2023-05-16T14:24:36;1.70;;;0.90;;
13847;SDS011;6994;49.752;6.094;2023-05-16T14:27:04;2.58;;;0.75;;
13847;SDS011;6994;49.752;6.094;2023-05-16T14:29:31;0.93;;;0.70;;
13847;SDS011;6994;49.752;6.094;2023-05-16T14:31:59;1.02;;;0.50;;
13847;SDS011;6994;49.752;6.094;2023-05-16T14:34:27;0.88;;;0.50;;
13847;SDS011;6994;49.752;6.094;2023-05-16T14:36:54;1.30;;;0.60;;
13847;SDS011;6994;49.752;6.094;2023-05-16T14:39:22;0.57;;;0.50;;
13847;SDS011;6994;49.752;6.094;2023-05-16T14:41:49;2.17;;;0.77;;
13847;SDS011;6994;49.752;6.094;2023-05-16T14:44:16;1.27;;;0.80;;
13847;SDS011;6994;49.752;6.094;2023-05-16T14:46:43;2.80;;;0.88;;
13847;SDS011;6994;49.752;6.094;2023-05-16T14:49:10;1.60;;;0.88;;
13847;SDS011;6994;49.752;6.094;2023-05-16T14:51:38;0.68;;;0.60;;
13847;SDS011;6994;49.752;6.094;2023-05-16T14:54:05;1.70;;;0.90;;
13847;SDS011;6994;49.752;6.094;2023-05-16T14:56:32;0.98;;;0.73;;
13847;SDS011;6994;49.752;6.094;2023-05-16T14:59:00;0.93;;;0.60;;
13847;SDS011;6994;49.752;6.094;2023-05-16T15:01:28;2.03;;;0.80;;
13847;SDS011;6994;49.752;6.094;2023-05-16T15:03:56;1.15;;;0.90;;
13847;SDS011;6994;49.752;6.094;2023-05-16T15:06:24;1.12;;;0.65;;
13847;SDS011;6994;49.752;6.094;2023-05-16T15:08:52;1.85;;;1.10;;
13847;SDS011;6994;49.752;6.094;2023-05-16T15:11:18;1.45;;;0.93;;
13847;SDS011;6994;49.752;6.094;2023-05-16T15:13:45;2.40;;;0.98;;
13847;SDS011;6994;49.752;6.094;2023-05-16T15:16:13;1.87;;;0.80;;
13847;SDS011;6994;49.752;6.094;2023-05-16T15:18:40;3.33;;;0.90;;
13847;SDS011;6994;49.752;6.094;2023-05-16T15:21:07;1.42;;;0.80;;
13847;SDS011;6994;49.752;6.094;2023-05-16T15:23:34;1.90;;;0.77;;
13847;SDS011;6994;49.752;6.094;2023-05-16T15:26:02;1.67;;;0.77;;